sensor_id;sensor_type;location;lat;lon;timestamp;temperature;humidity
51011;DHT22;37038;50.182;8.624;2022-09-03T00:05:53;14.90;99.90
51011;DHT22;37038;50.182;8.624;2022-09-03T00:12:12;14.90;99.90
51011;DHT22;37038;50.182;8.624;2022-09-03T00:15:12;14.90;99.90
51011;DHT22;37038;50.182;8.624;2022-09-03T00:21:00;14.80;99.90
51011;DHT22;37038;50.182;8.624;2022-09-03T00:23:55;14.80;99.90
51011;DHT22;37038;50.182;8.624;2022-09-03T00:26:49;14.80;99.90
51011;DHT22;37038;50.182;8.624;2022-09-03T00:29:48;14.80;99.90
51011;DHT22;37038;50.182;8.624;2022-09-03T00:32:43;14.70;99.90
51011;DHT22;37038;50.182;8.624;2022-09-03T00:35:45;14.70;99.90
51011;DHT22;37038;50.182;8.624;2022-09-03T00:38:46;14.60;99.90
51011;DHT22;37038;50.182;8.624;2022-09-03T00:48:26;14.50;99.90
51011;DHT22;37038;50.182;8.624;2022-09-03T01:00:56;14.50;99.90
51011;DHT22;37038;50.182;8.624;2022-09-03T01:07:52;14.50;99.90
51011;DHT22;37038;50.182;8.624;2022-09-03T01:10:56;14.40;99.90
51011;DHT22;37038;50.182;8.624;2022-09-03T01:14:07;14.40;99.90
51011;DHT22;37038;50.182;8.624;2022-09-03T01:17:19;14.30;99.90
51011;DHT22;37038;50.182;8.624;2022-09-03T01:27:08;14.30;99.90
51011;DHT22;37038;50.182;8.624;2022-09-03T01:30:10;14.30;99.90
51011;DHT22;37038;50.182;8.624;2022-09-03T01:33:18;14.20;99.90
51011;DHT22;37038;50.182;8.624;2022-09-03T01:43:03;14.30;99.90
51011;DHT22;37038;50.182;8.624;2022-09-03T01:46:39;14.20;99.90
51011;DHT22;37038;50.182;8.624;2022-09-03T01:49:39;14.10;99.90
51011;DHT22;37038;50.182;8.624;2022-09-03T02:02:15;13.90;99.90
51011;DHT22;37038;50.182;8.624;2022-09-03T02:05:12;13.80;99.90
51011;DHT22;37038;50.182;8.624;2022-09-03T02:08:04;13.80;99.90
51011;DHT22;37038;50.182;8.624;2022-09-03T02:10:56;13.80;99.90
51011;DHT22;37038;50.182;8.624;2022-09-03T02:13:55;13.80;99.90
51011;DHT22;37038;50.182;8.624;2022-09-03T02:16:46;13.90;99.90
51011;DHT22;37038;50.182;8.624;2022-09-03T02:19:34;13.90;99.90
51011;DHT22;37038;50.182;8.624;2022-09-03T02:22:24;14.00;99.90
51011;DHT22;37038;50.182;8.624;2022-09-03T02:25:12;14.00;99.90
51011;DHT22;37038;50.182;8.624;2022-09-03T02:28:01;14.00;99.90
51011;DHT22;37038;50.182;8.624;2022-09-03T02:30:49;14.00;99.90
51011;DHT22;37038;50.182;8.624;2022-09-03T02:33:40;14.00;99.90
51011;DHT22;37038;50.182;8.624;2022-09-03T02:36:44;14.00;99.90
51011;DHT22;37038;50.182;8.624;2022-09-03T02:39:33;14.10;99.90
51011;DHT22;37038;50.182;8.624;2022-09-03T02:42:25;14.10;99.90
51011;DHT22;37038;50.182;8.624;2022-09-03T02:45:26;14.20;99.90
51011;DHT22;37038;50.182;8.624;2022-09-03T02:48:19;14.10;99.90
51011;DHT22;37038;50.182;8.624;2022-09-03T02:51:10;14.10;99.90
51011;DHT22;37038;50.182;8.624;2022-09-03T02:54:00;14.20;99.90
51011;DHT22;37038;50.182;8.624;2022-09-03T02:56:48;14.20;99.90
51011;DHT22;37038;50.182;8.624;2022-09-03T02:59:36;14.20;99.90
51011;DHT22;37038;50.182;8.624;2022-09-03T03:02:26;14.30;99.90
51011;DHT22;37038;50.182;8.624;2022-09-03T03:05:20;14.30;99.90
51011;DHT22;37038;50.182;8.624;2022-09-03T03:08:18;14.40;99.90
51011;DHT22;37038;50.182;8.624;2022-09-03T03:11:08;14.50;99.90
51011;DHT22;37038;50.182;8.624;2022-09-03T03:13:56;14.50;99.90
51011;DHT22;37038;50.182;8.624;2022-09-03T03:16:44;14.60;99.90
51011;DHT22;37038;50.182;8.624;2022-09-03T03:19:32;14.60;99.90
51011;DHT22;37038;50.182;8.624;2022-09-03T03:22:19;14.70;99.90
51011;DHT22;37038;50.182;8.624;2022-09-03T03:25:08;14.70;99.90
51011;DHT22;37038;50.182;8.624;2022-09-03T03:27:56;14.70;99.90
51011;DHT22;37038;50.182;8.624;2022-09-03T03:30:43;14.60;99.90
51011;DHT22;37038;50.182;8.624;2022-09-03T03:33:34;14.60;99.90
51011;DHT22;37038;50.182;8.624;2022-09-03T03:36:24;14.60;99.90
51011;DHT22;37038;50.182;8.624;2022-09-03T03:39:13;14.50;99.90
51011;DHT22;37038;50.182;8.624;2022-09-03T03:42:01;14.50;99.90
51011;DHT22;37038;50.182;8.624;2022-09-03T03:44:49;14.50;99.90
51011;DHT22;37038;50.182;8.624;2022-09-03T03:47:37;14.50;99.90
51011;DHT22;37038;50.182;8.624;2022-09-03T03:50:25;14.60;99.90
51011;DHT22;37038;50.182;8.624;2022-09-03T03:53:14;14.60;99.90
51011;DHT22;37038;50.182;8.624;2022-09-03T03:56:07;14.70;99.90
51011;DHT22;37038;50.182;8.624;2022-09-03T03:58:57;14.70;99.90
51011;DHT22;37038;50.182;8.624;2022-09-03T04:01:45;14.70;99.90
51011;DHT22;37038;50.182;8.624;2022-09-03T04:04:35;14.70;99.90
51011;DHT22;37038;50.182;8.624;2022-09-03T04:07:23;14.70;99.90
51011;DHT22;37038;50.182;8.624;2022-09-03T04:10:10;14.70;99.90
51011;DHT22;37038;50.182;8.624;2022-09-03T04:12:58;14.70;99.90
51011;DHT22;37038;50.182;8.624;2022-09-03T04:15:47;14.70;99.90
51011;DHT22;37038;50.182;8.624;2022-09-03T04:18:36;14.70;99.90
51011;DHT22;37038;50.182;8.624;2022-09-03T04:21:27;14.70;99.90
51011;DHT22;37038;50.182;8.624;2022-09-03T04:24:15;14.70;99.90
51011;DHT22;37038;50.182;8.624;2022-09-03T04:27:03;14.70;99.90
51011;DHT22;37038;50.182;8.624;2022-09-03T04:29:51;14.70;99.90
51011;DHT22;37038;50.182;8.624;2022-09-03T04:32:39;14.70;99.90
51011;DHT22;37038;50.182;8.624;2022-09-03T04:35:42;14.70;99.90
51011;DHT22;37038;50.182;8.624;2022-09-03T04:38:32;14.70;99.90
51011;DHT22;37038;50.182;8.624;2022-09-03T04:41:23;14.80;99.90
51011;DHT22;37038;50.182;8.624;2022-09-03T04:44:12;14.80;99.90
51011;DHT22;37038;50.182;8.624;2022-09-03T04:47:00;14.80;99.90
51011;DHT22;37038;50.182;8.624;2022-09-03T04:49:48;14.70;99.90
51011;DHT22;37038;50.182;8.624;2022-09-03T04:52:35;14.80;99.90
51011;DHT22;37038;50.182;8.624;2022-09-03T04:55:25;14.90;99.90
51011;DHT22;37038;50.182;8.624;2022-09-03T04:58:12;14.90;99.90
51011;DHT22;37038;50.182;8.624;2022-09-03T05:01:16;15.00;99.90
51011;DHT22;37038;50.182;8.624;2022-09-03T05:04:06;15.10;99.90
51011;DHT22;37038;50.182;8.624;2022-09-03T05:06:54;15.10;99.90
51011;DHT22;37038;50.182;8.624;2022-09-03T05:09:42;15.10;99.90
51011;DHT22;37038;50.182;8.624;2022-09-03T05:12:30;15.10;99.90
51011;DHT22;37038;50.182;8.624;2022-09-03T05:15:19;15.10;99.90
51011;DHT22;37038;50.182;8.624;2022-09-03T05:18:07;15.20;99.90
51011;DHT22;37038;50.182;8.624;2022-09-03T05:20:59;15.30;99.90
51011;DHT22;37038;50.182;8.624;2022-09-03T05:23:49;15.30;99.90
51011;DHT22;37038;50.182;8.624;2022-09-03T05:26:38;15.30;99.90
51011;DHT22;37038;50.182;8.624;2022-09-03T05:29:26;15.20;99.90
51011;DHT22;37038;50.182;8.624;2022-09-03T05:32:14;15.20;99.90
51011;DHT22;37038;50.182;8.624;2022-09-03T05:35:04;15.10;99.90
51011;DHT22;37038;50.182;8.624;2022-09-03T05:37:54;15.10;99.90
51011;DHT22;37038;50.182;8.624;2022-09-03T05:40:42;15.10;99.90
51011;DHT22;37038;50.182;8.624;2022-09-03T05:43:31;15.10;99.90
51011;DHT22;37038;50.182;8.624;2022-09-03T05:46:19;15.20;99.90
51011;DHT22;37038;50.182;8.624;2022-09-03T05:49:07;15.30;99.90
51011;DHT22;37038;50.182;8.624;2022-09-03T05:51:55;15.30;99.90
51011;DHT22;37038;50.182;8.624;2022-09-03T05:54:43;15.40;99.90
51011;DHT22;37038;50.182;8.624;2022-09-03T05:57:30;15.50;99.90
51011;DHT22;37038;50.182;8.624;2022-09-03T06:00:19;15.70;99.90
51011;DHT22;37038;50.182;8.624;2022-09-03T06:03:06;15.90;99.90
51011;DHT22;37038;50.182;8.624;2022-09-03T06:05:55;16.00;99.90
51011;DHT22;37038;50.182;8.624;2022-09-03T06:08:42;16.10;99.90
51011;DHT22;37038;50.182;8.624;2022-09-03T06:11:33;16.10;99.90
51011;DHT22;37038;50.182;8.624;2022-09-03T06:14:21;16.20;99.90
51011;DHT22;37038;50.182;8.624;2022-09-03T06:17:10;16.20;99.90
51011;DHT22;37038;50.182;8.624;2022-09-03T06:19:58;16.20;99.90
51011;DHT22;37038;50.182;8.624;2022-09-03T06:22:50;16.20;99.90
51011;DHT22;37038;50.182;8.624;2022-09-03T06:25:39;16.20;99.90
51011;DHT22;37038;50.182;8.624;2022-09-03T06:28:30;16.20;99.90
51011;DHT22;37038;50.182;8.624;2022-09-03T06:31:23;16.20;99.90
51011;DHT22;37038;50.182;8.624;2022-09-03T06:34:11;16.20;99.90
51011;DHT22;37038;50.182;8.624;2022-09-03T06:36:59;16.10;99.90
51011;DHT22;37038;50.182;8.624;2022-09-03T06:39:46;16.20;99.90
51011;DHT22;37038;50.182;8.624;2022-09-03T06:42:38;16.20;99.90
51011;DHT22;37038;50.182;8.624;2022-09-03T06:45:33;16.20;99.90
51011;DHT22;37038;50.182;8.624;2022-09-03T06:48:21;16.30;99.90
51011;DHT22;37038;50.182;8.624;2022-09-03T06:51:12;16.30;99.90
51011;DHT22;37038;50.182;8.624;2022-09-03T06:54:04;16.30;99.90
51011;DHT22;37038;50.182;8.624;2022-09-03T06:56:53;16.30;99.90
51011;DHT22;37038;50.182;8.624;2022-09-03T06:59:40;16.30;99.90
51011;DHT22;37038;50.182;8.624;2022-09-03T07:02:30;16.30;99.90
51011;DHT22;37038;50.182;8.624;2022-09-03T07:05:18;16.30;99.90
51011;DHT22;37038;50.182;8.624;2022-09-03T07:08:09;16.30;99.90
51011;DHT22;37038;50.182;8.624;2022-09-03T07:11:06;16.10;99.90
51011;DHT22;37038;50.182;8.624;2022-09-03T07:13:58;15.80;99.90
51011;DHT22;37038;50.182;8.624;2022-09-03T07:16:48;15.40;99.90
51011;DHT22;37038;50.182;8.624;2022-09-03T07:19:36;14.90;99.90
51011;DHT22;37038;50.182;8.624;2022-09-03T07:22:24;14.60;99.90
51011;DHT22;37038;50.182;8.624;2022-09-03T07:25:18;14.50;99.90
51011;DHT22;37038;50.182;8.624;2022-09-03T07:28:05;14.40;99.90
51011;DHT22;37038;50.182;8.624;2022-09-03T07:30:59;14.60;99.90
51011;DHT22;37038;50.182;8.624;2022-09-03T07:33:48;14.80;99.90
51011;DHT22;37038;50.182;8.624;2022-09-03T07:36:41;15.00;99.90
51011;DHT22;37038;50.182;8.624;2022-09-03T07:39:31;15.30;99.90
51011;DHT22;37038;50.182;8.624;2022-09-03T07:42:20;15.50;99.90
51011;DHT22;37038;50.182;8.624;2022-09-03T07:45:08;15.70;99.90
51011;DHT22;37038;50.182;8.624;2022-09-03T07:47:59;15.90;99.90
51011;DHT22;37038;50.182;8.624;2022-09-03T07:50:46;16.00;99.90
51011;DHT22;37038;50.182;8.624;2022-09-03T07:53:35;16.10;99.90
51011;DHT22;37038;50.182;8.624;2022-09-03T07:56:24;16.10;99.90
51011;DHT22;37038;50.182;8.624;2022-09-03T07:59:13;16.10;99.90
51011;DHT22;37038;50.182;8.624;2022-09-03T08:02:01;16.10;99.90
51011;DHT22;37038;50.182;8.624;2022-09-03T08:04:52;16.10;99.90
51011;DHT22;37038;50.182;8.624;2022-09-03T08:07:40;16.20;99.90
51011;DHT22;37038;50.182;8.624;2022-09-03T08:10:28;16.20;99.90
51011;DHT22;37038;50.182;8.624;2022-09-03T08:13:17;16.20;99.90
51011;DHT22;37038;50.182;8.624;2022-09-03T08:16:07;16.30;99.90
51011;DHT22;37038;50.182;8.624;2022-09-03T08:18:56;16.40;99.90
51011;DHT22;37038;50.182;8.624;2022-09-03T08:21:44;16.50;99.90
51011;DHT22;37038;50.182;8.624;2022-09-03T08:24:32;16.60;99.90
51011;DHT22;37038;50.182;8.624;2022-09-03T08:27:21;16.70;99.90
51011;DHT22;37038;50.182;8.624;2022-09-03T08:30:11;16.60;99.90
51011;DHT22;37038;50.182;8.624;2022-09-03T08:33:01;16.50;99.90
51011;DHT22;37038;50.182;8.624;2022-09-03T08:35:54;16.20;99.90
51011;DHT22;37038;50.182;8.624;2022-09-03T08:38:43;16.00;99.90
51011;DHT22;37038;50.182;8.624;2022-09-03T08:41:47;15.90;99.90
51011;DHT22;37038;50.182;8.624;2022-09-03T08:45:02;15.80;99.90
51011;DHT22;37038;50.182;8.624;2022-09-03T08:48:20;15.70;99.90
51011;DHT22;37038;50.182;8.624;2022-09-03T08:51:12;15.70;99.90
51011;DHT22;37038;50.182;8.624;2022-09-03T08:54:04;15.60;99.90
51011;DHT22;37038;50.182;8.624;2022-09-03T08:56:56;15.60;99.90
51011;DHT22;37038;50.182;8.624;2022-09-03T08:59:53;15.60;99.90
51011;DHT22;37038;50.182;8.624;2022-09-03T09:03:03;15.80;99.90
51011;DHT22;37038;50.182;8.624;2022-09-03T09:19:40;18.60;99.90
51011;DHT22;37038;50.182;8.624;2022-09-03T09:23:06;18.70;99.90
51011;DHT22;37038;50.182;8.624;2022-09-03T09:26:00;18.90;99.90
51011;DHT22;37038;50.182;8.624;2022-09-03T09:28:56;19.30;99.90
51011;DHT22;37038;50.182;8.624;2022-09-03T09:31:50;19.30;99.90
51011;DHT22;37038;50.182;8.624;2022-09-03T09:34:40;19.20;99.90
51011;DHT22;37038;50.182;8.624;2022-09-03T09:37:27;19.20;99.90
51011;DHT22;37038;50.182;8.624;2022-09-03T09:43:20;19.30;99.90
51011;DHT22;37038;50.182;8.624;2022-09-03T09:46:22;19.20;99.90
51011;DHT22;37038;50.182;8.624;2022-09-03T09:52:25;19.00;99.90
51011;DHT22;37038;50.182;8.624;2022-09-03T09:55:17;18.90;99.90
51011;DHT22;37038;50.182;8.624;2022-09-03T09:58:07;19.00;99.90
51011;DHT22;37038;50.182;8.624;2022-09-03T10:01:13;19.20;99.90
51011;DHT22;37038;50.182;8.624;2022-09-03T10:04:11;19.10;99.90
51011;DHT22;37038;50.182;8.624;2022-09-03T10:07:15;19.10;99.90
51011;DHT22;37038;50.182;8.624;2022-09-03T10:10:17;19.10;99.90
51011;DHT22;37038;50.182;8.624;2022-09-03T10:13:23;19.20;99.90
51011;DHT22;37038;50.182;8.624;2022-09-03T10:16:26;19.20;99.90
51011;DHT22;37038;50.182;8.624;2022-09-03T10:19:24;19.50;99.90
51011;DHT22;37038;50.182;8.624;2022-09-03T10:22:21;19.70;99.90
51011;DHT22;37038;50.182;8.624;2022-09-03T10:25:19;20.00;99.90
51011;DHT22;37038;50.182;8.624;2022-09-03T10:28:09;20.30;99.90
51011;DHT22;37038;50.182;8.624;2022-09-03T10:37:37;20.60;99.90
51011;DHT22;37038;50.182;8.624;2022-09-03T10:50:30;19.80;99.90
51011;DHT22;37038;50.182;8.624;2022-09-03T10:54:04;19.70;99.90
51011;DHT22;37038;50.182;8.624;2022-09-03T11:00:14;19.80;99.90
51011;DHT22;37038;50.182;8.624;2022-09-03T11:03:13;20.00;99.90
51011;DHT22;37038;50.182;8.624;2022-09-03T11:06:29;20.00;99.90
51011;DHT22;37038;50.182;8.624;2022-09-03T11:09:40;20.20;99.90
51011;DHT22;37038;50.182;8.624;2022-09-03T11:12:37;20.40;99.90
51011;DHT22;37038;50.182;8.624;2022-09-03T11:15:36;20.20;99.90
51011;DHT22;37038;50.182;8.624;2022-09-03T11:18:40;20.20;99.90
51011;DHT22;37038;50.182;8.624;2022-09-03T11:21:32;20.60;99.90
51011;DHT22;37038;50.182;8.624;2022-09-03T11:24:22;20.70;99.90
51011;DHT22;37038;50.182;8.624;2022-09-03T11:30:47;21.20;99.90
51011;DHT22;37038;50.182;8.624;2022-09-03T11:33:45;21.20;99.90
51011;DHT22;37038;50.182;8.624;2022-09-03T11:36:37;21.00;99.90
51011;DHT22;37038;50.182;8.624;2022-09-03T11:39:37;20.80;99.90
51011;DHT22;37038;50.182;8.624;2022-09-03T11:42:35;20.70;99.90
51011;DHT22;37038;50.182;8.624;2022-09-03T11:48:27;20.80;99.90
51011;DHT22;37038;50.182;8.624;2022-09-03T11:57:15;21.40;99.90
51011;DHT22;37038;50.182;8.624;2022-09-03T12:00:15;21.70;99.90
51011;DHT22;37038;50.182;8.624;2022-09-03T12:03:13;21.60;99.90
51011;DHT22;37038;50.182;8.624;2022-09-03T12:09:42;21.60;99.90
51011;DHT22;37038;50.182;8.624;2022-09-03T12:13:32;21.80;99.90
51011;DHT22;37038;50.182;8.624;2022-09-03T12:19:51;22.40;99.90
51011;DHT22;37038;50.182;8.624;2022-09-03T12:22:41;22.40;99.90
51011;DHT22;37038;50.182;8.624;2022-09-03T12:25:29;22.30;99.90
51011;DHT22;37038;50.182;8.624;2022-09-03T12:28:19;22.20;99.90
51011;DHT22;37038;50.182;8.624;2022-09-03T12:34:14;21.40;99.90
51011;DHT22;37038;50.182;8.624;2022-09-03T12:37:02;21.00;99.90
51011;DHT22;37038;50.182;8.624;2022-09-03T12:39:55;20.80;99.90
51011;DHT22;37038;50.182;8.624;2022-09-03T12:42:54;20.70;99.90
51011;DHT22;37038;50.182;8.624;2022-09-03T12:46:02;20.70;99.90
51011;DHT22;37038;50.182;8.624;2022-09-03T12:49:01;20.70;99.90
51011;DHT22;37038;50.182;8.624;2022-09-03T12:58:34;20.60;99.90
51011;DHT22;37038;50.182;8.624;2022-09-03T13:01:28;20.60;99.90
51011;DHT22;37038;50.182;8.624;2022-09-03T13:04:27;20.70;99.90
51011;DHT22;37038;50.182;8.624;2022-09-03T13:07:34;20.80;99.90
51011;DHT22;37038;50.182;8.624;2022-09-03T13:10:37;20.90;99.90
51011;DHT22;37038;50.182;8.624;2022-09-03T13:13:30;21.00;99.90
51011;DHT22;37038;50.182;8.624;2022-09-03T13:26:04;21.30;99.90
51011;DHT22;37038;50.182;8.624;2022-09-03T13:36:02;21.80;99.90
51011;DHT22;37038;50.182;8.624;2022-09-03T13:38:59;21.80;99.90
51011;DHT22;37038;50.182;8.624;2022-09-03T13:42:32;21.80;99.90
51011;DHT22;37038;50.182;8.624;2022-09-03T13:48:40;21.70;99.90
51011;DHT22;37038;50.182;8.624;2022-09-03T13:51:55;21.70;99.90
51011;DHT22;37038;50.182;8.624;2022-09-03T13:54:50;21.80;99.90
51011;DHT22;37038;50.182;8.624;2022-09-03T13:57:48;21.80;99.90
51011;DHT22;37038;50.182;8.624;2022-09-03T14:03:55;22.00;99.90
51011;DHT22;37038;50.182;8.624;2022-09-03T14:07:05;22.00;99.90
51011;DHT22;37038;50.182;8.624;2022-09-03T14:10:09;22.20;99.90
51011;DHT22;37038;50.182;8.624;2022-09-03T14:13:18;22.40;99.90
51011;DHT22;37038;50.182;8.624;2022-09-03T14:16:37;22.50;99.90
51011;DHT22;37038;50.182;8.624;2022-09-03T14:23:01;22.80;99.90
51011;DHT22;37038;50.182;8.624;2022-09-03T14:25:56;22.60;99.90
51011;DHT22;37038;50.182;8.624;2022-09-03T14:28:48;22.30;99.90
51011;DHT22;37038;50.182;8.624;2022-09-03T14:35:48;22.20;99.90
51011;DHT22;37038;50.182;8.624;2022-09-03T14:45:59;22.10;99.90
51011;DHT22;37038;50.182;8.624;2022-09-03T14:49:33;22.30;99.90
51011;DHT22;37038;50.182;8.624;2022-09-03T15:02:51;22.50;99.90
51011;DHT22;37038;50.182;8.624;2022-09-03T15:06:00;22.50;99.90
51011;DHT22;37038;50.182;8.624;2022-09-03T15:12:18;22.50;99.90
51011;DHT22;37038;50.182;8.624;2022-09-03T15:15:19;22.70;99.90
51011;DHT22;37038;50.182;8.624;2022-09-03T15:25:12;22.80;99.90
51011;DHT22;37038;50.182;8.624;2022-09-03T15:28:26;22.70;99.90
51011;DHT22;37038;50.182;8.624;2022-09-03T15:31:26;22.70;99.90
51011;DHT22;37038;50.182;8.624;2022-09-03T15:34:59;22.40;99.90
51011;DHT22;37038;50.182;8.624;2022-09-03T15:37:56;22.20;99.90
51011;DHT22;37038;50.182;8.624;2022-09-03T15:40:50;22.00;99.90
51011;DHT22;37038;50.182;8.624;2022-09-03T15:43:41;21.90;99.90
51011;DHT22;37038;50.182;8.624;2022-09-03T15:46:37;21.70;99.90
51011;DHT22;37038;50.182;8.624;2022-09-03T15:49:43;21.60;99.90
51011;DHT22;37038;50.182;8.624;2022-09-03T15:53:24;21.50;99.90
51011;DHT22;37038;50.182;8.624;2022-09-03T16:05:57;21.40;99.90
51011;DHT22;37038;50.182;8.624;2022-09-03T16:08:51;21.50;99.90
51011;DHT22;37038;50.182;8.624;2022-09-03T16:15:50;21.60;99.90
51011;DHT22;37038;50.182;8.624;2022-09-03T16:18:46;21.70;99.90
51011;DHT22;37038;50.182;8.624;2022-09-03T16:25:07;21.90;99.90
51011;DHT22;37038;50.182;8.624;2022-09-03T16:28:08;21.90;99.90
51011;DHT22;37038;50.182;8.624;2022-09-03T16:31:14;22.00;99.90
51011;DHT22;37038;50.182;8.624;2022-09-03T16:34:29;21.90;99.90
51011;DHT22;37038;50.182;8.624;2022-09-03T16:37:49;21.80;99.90
51011;DHT22;37038;50.182;8.624;2022-09-03T16:47:49;21.50;99.90
51011;DHT22;37038;50.182;8.624;2022-09-03T16:50:52;21.50;99.90
51011;DHT22;37038;50.182;8.624;2022-09-03T16:54:06;21.40;99.90
51011;DHT22;37038;50.182;8.624;2022-09-03T16:57:35;21.30;99.90
51011;DHT22;37038;50.182;8.624;2022-09-03T17:11:47;21.10;99.90
51011;DHT22;37038;50.182;8.624;2022-09-03T17:18:02;21.00;99.90
51011;DHT22;37038;50.182;8.624;2022-09-03T17:24:58;20.80;99.90
51011;DHT22;37038;50.182;8.624;2022-09-03T17:28:31;20.80;99.90
51011;DHT22;37038;50.182;8.624;2022-09-03T17:31:53;20.80;99.90
51011;DHT22;37038;50.182;8.624;2022-09-03T17:35:10;20.70;99.90
51011;DHT22;37038;50.182;8.624;2022-09-03T17:38:29;20.60;99.90
51011;DHT22;37038;50.182;8.624;2022-09-03T17:42:00;20.50;99.90
51011;DHT22;37038;50.182;8.624;2022-09-03T17:45:26;20.30;99.90
51011;DHT22;37038;50.182;8.624;2022-09-03T17:48:46;20.20;99.90
51011;DHT22;37038;50.182;8.624;2022-09-03T17:54:47;19.80;99.90
51011;DHT22;37038;50.182;8.624;2022-09-03T17:57:47;19.70;99.90
51011;DHT22;37038;50.182;8.624;2022-09-03T18:00:46;19.60;99.90
51011;DHT22;37038;50.182;8.624;2022-09-03T18:03:58;19.50;99.90
51011;DHT22;37038;50.182;8.624;2022-09-03T18:07:22;19.40;99.90
51011;DHT22;37038;50.182;8.624;2022-09-03T18:10:43;19.40;99.90
51011;DHT22;37038;50.182;8.624;2022-09-03T18:17:30;19.30;99.90
51011;DHT22;37038;50.182;8.624;2022-09-03T18:20:25;19.30;99.90
51011;DHT22;37038;50.182;8.624;2022-09-03T18:27:35;19.20;99.90
51011;DHT22;37038;50.182;8.624;2022-09-03T18:30:45;19.20;99.90
51011;DHT22;37038;50.182;8.624;2022-09-03T18:33:51;19.20;99.90
51011;DHT22;37038;50.182;8.624;2022-09-03T18:36:58;19.20;99.90
51011;DHT22;37038;50.182;8.624;2022-09-03T18:40:07;19.20;99.90
51011;DHT22;37038;50.182;8.624;2022-09-03T18:43:30;19.20;99.90
51011;DHT22;37038;50.182;8.624;2022-09-03T18:51:07;19.10;99.90
51011;DHT22;37038;50.182;8.624;2022-09-03T18:54:45;19.10;99.90
51011;DHT22;37038;50.182;8.624;2022-09-03T19:01:42;19.00;99.90
51011;DHT22;37038;50.182;8.624;2022-09-03T19:08:14;18.80;99.90
51011;DHT22;37038;50.182;8.624;2022-09-03T19:15:29;18.70;99.90
51011;DHT22;37038;50.182;8.624;2022-09-03T19:22:35;18.50;99.90
51011;DHT22;37038;50.182;8.624;2022-09-03T19:25:42;18.40;99.90
51011;DHT22;37038;50.182;8.624;2022-09-03T19:28:53;18.30;99.90
51011;DHT22;37038;50.182;8.624;2022-09-03T19:32:07;18.30;99.90
51011;DHT22;37038;50.182;8.624;2022-09-03T19:35:22;18.20;99.90
51011;DHT22;37038;50.182;8.624;2022-09-03T19:38:39;18.20;99.90
51011;DHT22;37038;50.182;8.624;2022-09-03T19:41:56;18.20;99.90
51011;DHT22;37038;50.182;8.624;2022-09-03T19:45:48;18.10;99.90
51011;DHT22;37038;50.182;8.624;2022-09-03T19:52:52;18.10;99.90
51011;DHT22;37038;50.182;8.624;2022-09-03T19:56:10;18.00;99.90
51011;DHT22;37038;50.182;8.624;2022-09-03T19:59:22;18.00;99.90
51011;DHT22;37038;50.182;8.624;2022-09-03T20:02:31;17.90;99.90
51011;DHT22;37038;50.182;8.624;2022-09-03T20:05:39;17.90;99.90
51011;DHT22;37038;50.182;8.624;2022-09-03T20:08:46;17.80;99.90
51011;DHT22;37038;50.182;8.624;2022-09-03T20:11:57;17.80;99.90
51011;DHT22;37038;50.182;8.624;2022-09-03T20:14:53;17.70;99.90
51011;DHT22;37038;50.182;8.624;2022-09-03T20:21:38;17.60;99.90
51011;DHT22;37038;50.182;8.624;2022-09-03T20:31:00;17.50;99.90
51011;DHT22;37038;50.182;8.624;2022-09-03T20:34:14;17.50;99.90
51011;DHT22;37038;50.182;8.624;2022-09-03T20:46:59;17.30;99.90
51011;DHT22;37038;50.182;8.624;2022-09-03T21:03:04;17.20;99.90
51011;DHT22;37038;50.182;8.624;2022-09-03T21:06:12;17.20;99.90
51011;DHT22;37038;50.182;8.624;2022-09-03T21:09:28;17.20;99.90
51011;DHT22;37038;50.182;8.624;2022-09-03T21:13:30;17.20;99.90
51011;DHT22;37038;50.182;8.624;2022-09-03T21:19:17;17.10;99.90
51011;DHT22;37038;50.182;8.624;2022-09-03T21:25:34;17.10;99.90
51011;DHT22;37038;50.182;8.624;2022-09-03T21:28:43;17.00;99.90
51011;DHT22;37038;50.182;8.624;2022-09-03T21:31:59;17.00;99.90
51011;DHT22;37038;50.182;8.624;2022-09-03T21:38:05;16.80;99.90
51011;DHT22;37038;50.182;8.624;2022-09-03T21:41:12;16.70;99.90
51011;DHT22;37038;50.182;8.624;2022-09-03T21:44:07;16.60;99.90
51011;DHT22;37038;50.182;8.624;2022-09-03T21:47:05;16.60;99.90
51011;DHT22;37038;50.182;8.624;2022-09-03T21:50:15;16.50;99.90
51011;DHT22;37038;50.182;8.624;2022-09-03T21:53:20;16.40;99.90
51011;DHT22;37038;50.182;8.624;2022-09-03T21:57:02;16.40;99.90
51011;DHT22;37038;50.182;8.624;2022-09-03T22:03:06;16.30;99.90
51011;DHT22;37038;50.182;8.624;2022-09-03T22:06:02;16.20;99.90
51011;DHT22;37038;50.182;8.624;2022-09-03T22:12:03;16.10;99.90
51011;DHT22;37038;50.182;8.624;2022-09-03T22:14:53;16.00;99.90
51011;DHT22;37038;50.182;8.624;2022-09-03T22:17:44;16.00;99.90
51011;DHT22;37038;50.182;8.624;2022-09-03T22:20:35;15.90;99.90
51011;DHT22;37038;50.182;8.624;2022-09-03T22:23:29;15.90;99.90
51011;DHT22;37038;50.182;8.624;2022-09-03T22:26:31;15.90;99.90
51011;DHT22;37038;50.182;8.624;2022-09-03T22:30:07;15.90;99.90
51011;DHT22;37038;50.182;8.624;2022-09-03T22:33:25;15.80;99.90
51011;DHT22;37038;50.182;8.624;2022-09-03T22:36:29;15.80;99.90
51011;DHT22;37038;50.182;8.624;2022-09-03T22:39:40;15.80;99.90
51011;DHT22;37038;50.182;8.624;2022-09-03T22:42:37;15.80;99.90
51011;DHT22;37038;50.182;8.624;2022-09-03T22:55:28;15.70;99.90
51011;DHT22;37038;50.182;8.624;2022-09-03T22:58:20;15.70;99.90
51011;DHT22;37038;50.182;8.624;2022-09-03T23:01:16;15.70;99.90
51011;DHT22;37038;50.182;8.624;2022-09-03T23:04:29;15.70;99.90
51011;DHT22;37038;50.182;8.624;2022-09-03T23:07:49;15.60;99.90
51011;DHT22;37038;50.182;8.624;2022-09-03T23:11:01;15.60;99.90
51011;DHT22;37038;50.182;8.624;2022-09-03T23:14:17;15.60;99.90
51011;DHT22;37038;50.182;8.624;2022-09-03T23:17:18;15.60;99.90
51011;DHT22;37038;50.182;8.624;2022-09-03T23:20:26;15.50;99.90
51011;DHT22;37038;50.182;8.624;2022-09-03T23:23:28;15.50;99.90
51011;DHT22;37038;50.182;8.624;2022-09-03T23:26:38;15.40;99.90
51011;DHT22;37038;50.182;8.624;2022-09-03T23:29:41;15.40;99.90
51011;DHT22;37038;50.182;8.624;2022-09-03T23:32:32;15.30;99.90
51011;DHT22;37038;50.182;8.624;2022-09-03T23:35:28;15.30;99.90
51011;DHT22;37038;50.182;8.624;2022-09-03T23:41:21;15.30;99.90
51011;DHT22;37038;50.182;8.624;2022-09-03T23:44:58;15.20;99.90
51011;DHT22;37038;50.182;8.624;2022-09-03T23:51:19;15.20;99.90
51011;DHT22;37038;50.182;8.624;2022-09-03T23:57:36;15.10;99.90
